Aktualne dane pomiarowe

Uwaga, wersja testowa! Automatyczne pobieranie danych za pomocą narzędzi lub skryptów to umożliwiających jest zabronione.

Dane meteo z obszaru Polski uzyskane na podstawie depesz SYNOP pobieranych co godzinę z NWS. Najedź myszką na symbol przedstawiony w tabeli, aby uzyskać informacje co do jego znaczenia. Prosimy pamiętać, że to testowa wersja strony, która jeszcze nie jest ukończona. Stworzono również jest krótki FAQ dotyczący korzystania z tej podstrony Anomalie temperatury w chwili obecnej odniesione są do okresu referencyjnego 1951-2016. Okres ten będzie później zmieniony na 1981-2010. Kliknij ikonę aby pobrać plik CSV. Kliknij ikonę aby wygenerować mapę synoptyczną dla danego terminu.

Wybierz Datę:    

        

Zamość (12595)

Dane terminowe dla wybranej stacji. Kliknij datę, aby otrzymać dane z tego terminu dla wszystkich stacji.

TemperaturaZachmurzenieWiatrCiśnienieOpadyPogoda
 Data t td wb tx tn tg rh  Nt Nl Cl Cm Ch ws wd g1 g2 wx mslp ppp ch 24h 12h t ww ww w1 w2  
2019-06-17 23:00:00 16.4 15.4 15.7--- 9420.0--1wx--11020.7 994.3 0.3---------
2019-06-17 22:00:00 16.1 15.3 15.5--- 9520.0--1wx--11020.7 994.2 0.2---------
2019-06-17 21:00:00 16.7 15.6 15.9--- 9320.0--1wx--11020.6 994.2 0.6---------
2019-06-17 20:00:00 16.9 15.6 16.0--- 9220.0--2wx--21020.4 994.0 0.4---------
2019-06-17 19:00:00 17.8 15.8 16.4--- 8820.0--1wx---1020.3 994.0 0.2---------
2019-06-17 18:00:00 19.3 14.8 16.3 21.5 18.4- 7520.0wx-wx1wx--11019.8 993.6 -0.2- 0.012------
2019-06-17 17:00:00 19.8 13.9 15.9--- 6920.0wx-wxwx3wx--31019.7 993.6 -0.6---------
2019-06-17 16:00:00 20.1 13.5 15.8--- 6620.0wxwxwxwx5wx--51019.9 993.8 -0.4---------
2019-06-17 15:00:00 20.7 13.9 16.3--- 6520.0wxwxwxwx6wx--61019.8 993.8 -0.4---------
2019-06-17 14:00:00 20.5 14.6 16.6--- 6920.0wxwxwxwx5wx--51020.3 994.2 -0.1---------
2019-06-17 13:00:00 19.7 14.7 16.4--- 7320.0wxwxwxwx5wx--51020.3 994.2 0.0---------
2019-06-17 12:00:00 20.1 14.5 16.4--- 7020.0wxwxwxwx6wx--61020.3 994.2 0.5- 0.06------
2019-06-17 11:00:00 20.7 14.1 16.4--- 6620.0wxwxwxwx5wx--51020.3 994.3 0.7---------
2019-06-17 10:00:00 21.1 14.0 16.5--- 6420.0wxwxwxwx4wx--41020.2 994.2 0.6---------
2019-06-17 09:00:00 20.9 13.8 16.3--- 6420.0wxwxwxwx6wx--61019.7 993.7 -0.1---------
2019-06-17 08:00:00 20.5 14.6 16.6--- 6920.0wxwxwxwxwx6wx--61019.6 993.6 0.3---------
2019-06-17 07:00:00 19.5 14.3 16.1--- 7220.0wxwxwxwxwx5wx--51019.7 993.6 0.4---------
2019-06-17 06:00:00 18.4 14.9 16.0 24.9 16.4 15 8020.0wxwxwxwxwx5wx--51020.0 993.8 0.9 0.2 0.212wx-----
2019-06-17 05:00:00 18.4 15.6 16.4--- 8420.0--5wx--51019.5 993.3 0.9---------
2019-06-17 04:00:00 17.6 15.8 16.3--- 8920.0--3wx--31019.5 993.2 1.5---------
2019-06-17 03:00:00 16.5 15.2 15.6--- 9220.0--2wx--21019.3 992.9 2.2---------
2019-06-17 02:00:00 17.7 15.3 16.0--- 8620.0--3wx--31018.7 992.4 1.8---------
2019-06-17 01:00:00 18.4 15.6 16.4--- 8420.0--4wx--41017.9 991.7 0.0---------
2019-06-17 00:00:00 19.1 16.3 17.1--- 8420.0--6wx--61016.8 990.7 -0.8- 0.26wx-----
2019-06-16 23:00:00 19.8 17.6 18.2--- 8720.0--3wx--31016.6 990.6 0.8---wx-----
2019-06-16 22:00:00 20.1 17.7 18.4--- 8620.0-------1017.7 991.7 1.9---wx-----
2019-06-16 21:00:00 20.7 18.1 18.8--- 8520.0-------1017.5 991.5 2.4---wx-----
2019-06-16 20:00:00 21.6 19.3 19.9--- 8720.0-------1015.6 989.8 0.9---------
2019-06-16 19:00:00 22.5 19.3 20.2--- 8210.0-------1015.6 989.8 1.5---------
2019-06-16 18:00:00 24.6 19.4 21.0 29.5 24.4- 7320.0wxwxwxwx3wx---1014.7 989.1 0.9- 0.012wx-w1--
2019-06-16 17:00:00 26.7 19.6 21.8--- 6520.0wxwxwxwx3wx---1014.3 988.9 1.2---------
2019-06-16 16:00:00 27.9 18.6 21.6--- 5720.0wxwxwxwx3wx---1013.6 988.3 0.4---------
2019-06-16 15:00:00 29.3 19.3 22.5--- 5520.0wxwxwxwx3wx---1013.3 988.2 0.4---wx-w1--
2019-06-16 14:00:00 25.8 19.4 21.4--- 6820.0wxwxwx3wx---1013.1 987.7 -0.2---wx-w1--
2019-06-16 13:00:00 25.9 19.3 21.3--- 6720.0wxwxwx4wx---1013.3 987.9 0.0---wx---
2019-06-16 12:00:00 28.3 19.0 22.0--- 5720.0wxwxwxwx4wx--41013.0 987.8 0.3- 0.06------
2019-06-16 11:00:00 28.6 21.1 23.4--- 6420.0wxwxwxwx5wx---1013.1 987.9 0.7---------
2019-06-16 10:00:00 28.4 21.4 23.5--- 6620.0wxwxwxwxwx3wx---1013.1 987.9 0.4---------
2019-06-16 09:00:00 28.1 20.4 22.8--- 6320.0wx-wxwx1wx--11012.7 987.5 0.3---------
2019-06-16 08:00:00 26.7 20.3 22.2--- 6820.0wx-wx1wx--11012.5 987.2 0.5---------
2019-06-16 07:00:00 25.1 19.7 21.3--- 7213.0wx-wx3wx--31013.0 987.5 0.7---------
2019-06-16 06:00:00 24.5 20.0 21.3 26.2 18.7 15 7620.0wx-wx3wx--31012.7 987.2 0.4- 0.012wx-----
2019-06-16 05:00:00 22.1 18.3 19.4--- 7918.0--0---01012.4 986.7 0.0---------
2019-06-16 04:00:00 19.9 17.9 18.5--- 8820.0--1wx--11012.7 986.8 0.0---------
2019-06-16 03:00:00 18.9 16.5 17.2--- 8620.0--1wx--11012.8 986.8 -0.3---------
2019-06-16 02:00:00 20.3 16.5 17.7--- 7920.0-------1012.6 986.7 -0.5---------
2019-06-16 01:00:00 19.8 16.8 17.7--- 8320.0-------1012.7 986.8 -0.5---------
2019-06-16 00:00:00 19.7 17.1 17.9--- 8520.0-------1013.0 987.1 -0.4- 0.06------
1.8 ms

 

Print Friendly, PDF & Email